Time;durP1;ratioP1;P1;durP2;ratioP2;P2;SDS_P1;SDS_P2;PMS_P1;PMS_P2;Temp;Humidity;BMP_temperature;BMP_pressure;BME280_temperature;BME280_humidity;BME280_pressure;Samples;Min_cycle;Max_cycle;Signal;HPM_P1;HPM_P2
2023/12/01 00:02:10;;;;;;;;;;;;;;;-5.31;75.38;98942.34;5022549;28;19933;-72
2023/12/01 00:04:36;;;;;;;;;;;;;;;-5.28;75.41;98949.94;5039350;28;20363;-72
2023/12/01 00:07:02;;;;;;;;;;;;;;;-5.28;75.51;98955.28;5023075;28;19929;-72
2023/12/01 00:09:27;;;;;;;;;;;;;;;-5.28;75.10;98955.28;5024220;28;19929;-71
2023/12/01 00:11:53;;;;;;;;;;;;;;;-5.28;75.16;98949.94;5024040;28;19933;-71
2023/12/01 00:14:21;;;;;;;;;;;;;;;-5.26;75.40;98955.06;5017018;28;19965;-71
2023/12/01 00:16:46;;;;;;;;;;;;;;;-5.24;74.94;98954.88;5020602;28;19960;-71
2023/12/01 00:19:14;;;;;;;;;;;;;;;-5.27;74.80;98959.59;5023016;28;19964;-71
2023/12/01 00:21:40;;;;;;;;;;;;;;;-5.35;75.39;98949.03;5015012;28;19983;-71
2023/12/01 00:24:06;;;;;;;;;;;;;;;-5.35;75.44;98957.03;5020875;28;19933;-71
2023/12/01 00:26:31;;;;;;;;;;;;;;;-5.33;75.53;98951.53;5018568;28;19983;-72
2023/12/01 00:28:58;;;;;;;;;;;;;;;-5.28;75.09;98957.94;5022530;28;19935;-72
2023/12/01 00:31:24;;;;;;;;;;;;;;;-5.30;74.46;98962.63;5022287;28;19929;-72
2023/12/01 00:33:50;;;;;;;;;;;;;;;-5.34;73.62;98971.19;5022608;28;19972;-72
2023/12/01 00:36:18;;;;;;;;;;;;;;;-5.45;74.24;98952.03;5023196;28;19940;-73
2023/12/01 00:38:44;;;;;;;;;;;;;;;-5.42;74.80;98967.63;5005641;28;19976;-73
2023/12/01 00:41:11;;;;;;;;;;;;;;;-5.36;75.17;98957.25;5023183;28;19964;-71
2023/12/01 00:43:37;;;;;;;;;;;;;;;-5.32;74.96;98961.97;5003051;28;19934;-71
2023/12/01 00:46:03;;;;;;;;;;;;;;;-5.24;74.78;98965.53;5022308;28;20389;-71
2023/12/01 00:48:29;;;;;;;;;;;;;;;-5.24;74.51;98968.22;5030964;28;20324;-71
2023/12/01 00:50:55;;;;;;;;;;;;;;;-5.31;74.11;98946.81;5022046;28;19982;-71
2023/12/01 00:53:22;;;;;;;;;;;;;;;-5.42;74.74;98954.31;5023022;28;20410;-71
2023/12/01 00:55:49;;;;;;;;;;;;;;;-5.41;74.99;98961.28;5034169;28;19929;-71
2023/12/01 00:58:15;;;;;;;;;;;;;;;-5.35;75.39;98981.03;4998586;28;19962;-71
2023/12/01 01:00:41;;;;;;;;;;;;;;;-5.36;75.09;98960.72;5021561;28;19929;-71
2023/12/01 01:03:08;;;;;;;;;;;;;;;-5.34;75.14;98960.53;5022427;28;19929;-71
2023/12/01 01:05:33;;;;;;;;;;;;;;;-5.36;75.47;98965.25;5021746;28;20397;-71
2023/12/01 01:08:00;;;;;;;;;;;;;;;-5.31;75.61;98970.81;5021793;28;20035;-70
2023/12/01 01:10:27;;;;;;;;;;;;;;;-5.30;75.83;98965.31;5022923;28;19929;-71
2023/12/01 01:12:53;;;;;;;;;;;;;;;-5.29;75.47;98956.28;5020844;28;19929;-71
2023/12/01 01:15:19;;;;;;;;;;;;;;;-5.29;75.14;98960.78;5022774;28;19936;-71
2023/12/01 01:17:45;;;;;;;;;;;;;;;-5.30;75.06;98962.63;5018483;28;19937;-70
2023/12/01 01:20:11;;;;;;;;;;;;;;;-5.34;75.56;98956.03;5019635;28;20095;-70
2023/12/01 01:22:37;;;;;;;;;;;;;;;-5.31;75.94;98955.66;5038941;28;20459;-71
2023/12/01 01:25:04;;;;;;;;;;;;;;;-5.30;75.72;98962.63;5037739;28;20440;-71
2023/12/01 01:27:32;;;;;;;;;;;;;;;-5.28;75.87;98959.75;5022819;28;20388;-70
2023/12/01 01:29:57;;;;;;;;;;;;;;;-5.27;75.91;98964.91;5020245;28;20075;-70
2023/12/01 01:32:23;;;;;;;;;;;;;;;-5.30;76.12;98959.97;5022819;28;19915;-72
2023/12/01 01:34:50;;;;;;;;;;;;;;;-5.24;76.23;98973.53;5020859;28;19936;-72
2023/12/01 01:37:16;;;;;;;;;;;;;;;-5.26;76.06;98963.06;5023101;28;19929;-72
2023/12/01 01:39:42;;;;;;;;;;;;;;;-5.23;76.47;98967.19;5000882;28;20040;-72
2023/12/01 01:42:07;;;;;;;;;;;;;;;-5.18;76.49;98960.28;5021744;28;19929;-72
2023/12/01 01:44:35;;;;;;;;;;;;;;;-5.13;76.43;98954.38;5005197;28;19937;-72
2023/12/01 01:47:01;;;;;;;;;;;;;;;-5.14;76.42;98958.06;5023890;28;20431;-73
2023/12/01 01:49:27;;;;;;;;;;;;;;;-5.10;76.60;98974.47;5020129;28;19956;-71
2023/12/01 01:51:53;;;;;;;;;;;;;;;-5.21;76.79;98950.00;5022672;28;20343;-71
2023/12/01 01:54:22;;;;;;;;;;;;;;;-5.13;77.04;98973.84;4987843;28;19933;-71
2023/12/01 01:56:48;;;;;;;;;;;;;;;-5.18;77.54;98970.09;5020759;28;20404;-71
2023/12/01 01:59:14;;;;;;;;;;;;;;;-5.21;77.50;98963.31;5017526;28;19944;-71
2023/12/01 02:01:41;;;;;;;;;;;;;;;-5.21;77.74;98959.81;4990097;28;19972;-70
2023/12/01 02:04:07;;;;;;;;;;;;;;;-5.27;77.70;98959.59;5000390;28;19929;-70
2023/12/01 02:06:33;;;;;;;;;;;;;;;-5.18;77.51;98976.25;5016764;28;19933;-70
2023/12/01 02:09:00;;;;;;;;;;;;;;;-5.17;77.25;98961.91;5000631;28;19929;-70
2023/12/01 02:11:26;;;;;;;;;;;;;;;-5.18;77.33;98949.59;5005705;28;19975;-70
2023/12/01 02:13:52;;;;;;;;;;;;;;;-5.16;77.49;98971.56;5023293;28;19929;-71
2023/12/01 02:16:18;;;;;;;;;;;;;;;-5.17;77.29;98961.06;5021125;28;19933;-73
2023/12/01 02:18:45;;;;;;;;;;;;;;;-5.11;77.25;98971.00;5001574;28;20426;-72
2023/12/01 02:21:14;;;;;;;;;;;;;;;-5.08;76.80;98957.25;5004777;28;19940;-72
2023/12/01 02:23:44;;;;;;;;;;;;;;;-5.23;76.62;98959.19;5002644;28;20032;-72
2023/12/01 02:26:10;;;;;;;;;;;;;;;-5.10;76.21;98958.47;5011958;28;19944;-72
2023/12/01 02:28:36;;;;;;;;;;;;;;;-5.09;76.37;98963.63;5021002;28;19929;-72
2023/12/01 02:31:02;;;;;;;;;;;;;;;-5.08;76.25;98965.25;5020992;28;19929;-72
2023/12/01 02:33:28;;;;;;;;;;;;;;;-5.10;76.22;98972.63;5022280;28;19990;-72
2023/12/01 02:35:54;;;;;;;;;;;;;;;-5.08;76.25;98964.44;5021964;28;20068;-73
2023/12/01 02:38:20;;;;;;;;;;;;;;;-5.05;76.40;98959.53;5021113;28;19928;-72
2023/12/01 02:40:50;;;;;;;;;;;;;;;-5.03;76.61;98956.69;5022594;28;19939;-72
2023/12/01 02:43:16;;;;;;;;;;;;;;;-5.00;76.62;98951.78;5002024;28;19933;-72
2023/12/01 02:45:42;;;;;;;;;;;;;;;-4.97;76.40;98955.91;5008894;28;19933;-71
2023/12/01 02:48:08;;;;;;;;;;;;;;;-4.99;76.15;98966.78;5020171;28;20469;-70
2023/12/01 02:50:34;;;;;;;;;;;;;;;-5.02;76.10;98958.34;5020027;28;19951;-70
2023/12/01 02:53:01;;;;;;;;;;;;;;;-5.04;75.86;98971.03;5023558;28;20412;-70
2023/12/01 02:55:27;;;;;;;;;;;;;;;-5.08;76.00;98954.59;5020728;28;20308;-70
2023/12/01 02:57:57;;;;;;;;;;;;;;;-5.08;76.37;98948.44;4984328;28;19979;-70
2023/12/01 03:00:24;;;;;;;;;;;;;;;-5.04;75.94;98945.19;5022662;28;20043;-70
2023/12/01 03:02:50;;;;;;;;;;;;;;;-5.05;75.45;98937.41;5021070;28;20225;-70
2023/12/01 03:05:17;;;;;;;;;;;;;;;-5.04;75.69;98942.53;5020208;28;19935;-70
2023/12/01 03:07:42;;;;;;;;;;;;;;;-5.06;75.29;98947.22;5020208;28;19929;-71
2023/12/01 03:10:08;;;;;;;;;;;;;;;-5.06;75.06;98947.22;5020370;28;19929;-70
2023/12/01 03:12:34;;;;;;;;;;;;;;;-5.10;75.61;98948.63;5022113;28;20327;-71
2023/12/01 03:15:02;;;;;;;;;;;;;;;-5.07;75.66;98947.41;5022476;28;20404;-70
2023/12/01 03:17:29;;;;;;;;;;;;;;;-5.01;75.64;98946.66;5019901;28;20023;-70
2023/12/01 03:19:55;;;;;;;;;;;;;;;-5.02;75.90;98937.00;4987221;28;20316;-70
2023/12/01 03:22:20;;;;;;;;;;;;;;;-4.92;75.25;98952.66;5020238;28;19935;-70
2023/12/01 03:24:47;;;;;;;;;;;;;;;-4.94;75.21;98942.19;5019625;28;20016;-70
2023/12/01 03:27:13;;;;;;;;;;;;;;;-4.93;75.75;98945.69;5018750;28;19975;-70
2023/12/01 03:29:39;;;;;;;;;;;;;;;-4.95;75.90;98937.88;5004880;28;19929;-71
2023/12/01 03:32:07;;;;;;;;;;;;;;;-4.92;76.32;98944.66;5003719;28;19933;-71
2023/12/01 03:34:33;;;;;;;;;;;;;;;-4.90;76.22;98947.94;5001695;28;20352;-71
2023/12/01 03:36:59;;;;;;;;;;;;;;;-4.89;75.88;98961.09;5001869;28;19933;-71
2023/12/01 03:39:25;;;;;;;;;;;;;;;-4.92;75.68;98955.31;5019203;28;20355;-70
2023/12/01 03:41:52;;;;;;;;;;;;;;;-4.89;76.35;98957.59;5020309;28;19933;-70
2023/12/01 03:44:18;;;;;;;;;;;;;;;-4.89;76.24;98955.78;5025168;28;19933;-71
2023/12/01 03:46:44;;;;;;;;;;;;;;;-4.88;76.41;98941.41;5023350;28;19929;-71
2023/12/01 03:49:11;;;;;;;;;;;;;;;-4.89;76.42;98953.09;5022383;28;19929;-72
2023/12/01 03:51:37;;;;;;;;;;;;;;;-4.92;76.51;98947.31;5023867;28;20047;-72
2023/12/01 03:54:03;;;;;;;;;;;;;;;-4.90;76.55;98948.78;5026321;28;20459;-71
2023/12/01 03:56:29;;;;;;;;;;;;;;;-4.88;76.52;98949.41;5020277;28;19941;-72
2023/12/01 03:58:55;;;;;;;;;;;;;;;-4.88;76.44;98940.56;5003541;28;20311;-72
2023/12/01 04:01:21;;;;;;;;;;;;;;;-4.86;76.73;98947.38;5008878;28;19964;-70
2023/12/01 04:03:47;;;;;;;;;;;;;;;-4.83;76.73;98946.16;5023338;28;19936;-70
2023/12/01 04:06:15;;;;;;;;;;;;;;;-4.81;76.52;98944.13;5023620;28;19928;-70
2023/12/01 04:08:40;;;;;;;;;;;;;;;-4.82;76.35;98941.66;5023727;28;19929;-70
2023/12/01 04:11:07;;;;;;;;;;;;;;;-4.86;76.60;98943.88;5023219;28;19929;-70
2023/12/01 04:13:32;;;;;;;;;;;;;;;-4.87;76.68;98963.56;5011103;28;19952;-70
2023/12/01 04:15:59;;;;;;;;;;;;;;;-4.83;76.09;98935.50;5021680;28;20527;-71
2023/12/01 04:18:27;;;;;;;;;;;;;;;-4.78;76.27;98935.72;5017743;28;20088;-70
2023/12/01 04:20:53;;;;;;;;;;;;;;;-4.73;76.03;98943.16;5008341;28;19929;-72
2023/12/01 04:23:21;;;;;;;;;;;;;;;-4.78;76.17;98935.72;5044640;28;19929;-72
2023/12/01 04:25:47;;;;;;;;;;;;;;;-4.75;76.02;98945.19;5015751;28;20380;-71
2023/12/01 04:28:14;;;;;;;;;;;;;;;-4.77;76.04;98929.38;5012061;28;19929;-72
2023/12/01 04:30:40;;;;;;;;;;;;;;;-4.83;76.17;98935.50;5012404;28;20027;-72
2023/12/01 04:33:06;;;;;;;;;;;;;;;-4.75;76.59;98945.19;5017934;28;20070;-70
2023/12/01 04:35:33;;;;;;;;;;;;;;;-4.78;76.75;98935.72;5006929;28;19937;-70
2023/12/01 04:38:00;;;;;;;;;;;;;;;-4.79;77.46;98927.91;4999026;28;19929;-70
2023/12/01 04:40:27;;;;;;;;;;;;;;;-4.80;77.30;98932.44;5013432;28;19929;-70
2023/12/01 04:42:54;;;;;;;;;;;;;;;-4.82;77.43;98934.47;4996232;28;20327;-71
2023/12/01 04:45:21;;;;;;;;;;;;;;;-4.82;77.48;98925.63;5031535;28;20020;-71
2023/12/01 04:47:51;;;;;;;;;;;;;;;-4.74;77.48;98930.84;5017012;28;19948;-70
2023/12/01 04:50:18;;;;;;;;;;;;;;;-4.70;77.35;98937.41;5013564;28;19929;-70
2023/12/01 04:52:45;;;;;;;;;;;;;;;-4.70;77.05;98927.56;5013068;28;19952;-70
2023/12/01 04:55:12;;;;;;;;;;;;;;;-4.81;76.73;98909.44;5013925;28;20257;-70
2023/12/01 04:57:40;;;;;;;;;;;;;;;-4.67;76.69;98929.00;5000951;28;19929;-72
2023/12/01 05:00:19;;;;;;;;;;;;;;;-4.65;76.79;98926.97;5012769;28;19929;-72
2023/12/01 05:02:47;;;;;;;;;;;;;;;-4.66;76.66;98924.50;5012339;28;20388;-72
2023/12/01 05:05:13;;;;;;;;;;;;;;;-4.66;76.42;98924.50;5012815;28;19936;-72
2023/12/01 05:07:39;;;;;;;;;;;;;;;-4.67;76.52;98921.00;5022659;28;20376;-72
2023/12/01 05:10:08;;;;;;;;;;;;;;;-4.65;76.56;98926.16;5023472;28;19940;-72
2023/12/01 05:12:34;;;;;;;;;;;;;;;-4.63;76.65;98919.59;5021032;28;20161;-71
2023/12/01 05:15:02;;;;;;;;;;;;;;;-4.60;76.43;98924.56;5023502;28;19929;-72
2023/12/01 05:17:28;;;;;;;;;;;;;;;-4.60;76.41;98927.22;4991545;28;20395;-71
2023/12/01 05:19:56;;;;;;;;;;;;;;;-4.60;76.50;98921.03;5023792;28;19929;-72
2023/12/01 05:22:21;;;;;;;;;;;;;;;-4.57;76.41;98917.97;5023307;28;19928;-71
2023/12/01 05:24:47;;;;;;;;;;;;;;;-4.56;75.68;98912.47;5022249;28;19935;-72
2023/12/01 05:27:13;;;;;;;;;;;;;;;-4.53;75.82;98913.06;5024597;28;19944;-72
2023/12/01 05:29:39;;;;;;;;;;;;;;;-4.49;75.87;98892.97;5022578;28;19961;-72
2023/12/01 05:32:07;;;;;;;;;;;;;;;-4.49;75.63;98908.97;5026023;28;19956;-72
2023/12/01 05:34:33;;;;;;;;;;;;;;;-4.49;75.60;98911.66;5016522;28;19929;-72
2023/12/01 05:36:59;;;;;;;;;;;;;;;-4.49;75.81;98903.66;5012575;28;19999;-72
2023/12/01 05:39:25;;;;;;;;;;;;;;;-4.45;75.66;98908.41;5008213;28;20404;-72
2023/12/01 05:41:51;;;;;;;;;;;;;;;-4.45;75.61;98905.72;4986582;28;19940;-72
2023/12/01 05:44:17;;;;;;;;;;;;;;;-4.48;75.50;98905.28;5001295;28;19951;-72
2023/12/01 05:46:43;;;;;;;;;;;;;;;-4.51;75.70;98901.19;5015641;28;19961;-72
2023/12/01 05:49:10;;;;;;;;;;;;;;;-4.50;75.64;98916.19;5010789;28;19971;-71
2023/12/01 05:51:36;;;;;;;;;;;;;;;-4.50;75.72;98907.34;5013824;28;19983;-72
2023/12/01 05:54:02;;;;;;;;;;;;;;;-4.45;75.95;98911.06;5016752;28;20006;-72
2023/12/01 05:56:28;;;;;;;;;;;;;;;-4.37;75.87;98911.91;5021080;28;19929;-73
2023/12/01 05:58:54;;;;;;;;;;;;;;;-4.36;75.56;98913.56;5019953;28;19939;-72
2023/12/01 06:01:19;;;;;;;;;;;;;;;-4.36;75.34;98914.38;5021529;28;20446;-71
2023/12/01 06:03:45;;;;;;;;;;;;;;;-4.35;75.32;98910.69;5024957;28;19929;-70
2023/12/01 06:06:13;;;;;;;;;;;;;;;-4.33;75.32;98910.50;5023438;28;19929;-71
2023/12/01 06:08:39;;;;;;;;;;;;;;;-4.40;75.42;98910.47;5023624;28;19936;-70
2023/12/01 06:11:05;;;;;;;;;;;;;;;-4.35;75.67;98907.22;5037168;28;19936;-71
2023/12/01 06:13:31;;;;;;;;;;;;;;;-4.34;75.68;98917.66;5021401;28;19936;-70
2023/12/01 06:15:57;;;;;;;;;;;;;;;-4.32;75.76;98912.94;5022952;28;20312;-70
2023/12/01 06:18:23;;;;;;;;;;;;;;;-4.30;75.80;98915.44;5021238;28;19932;-70
2023/12/01 06:20:49;;;;;;;;;;;;;;;-4.29;75.14;98919.75;5005660;28;19929;-70
2023/12/01 06:23:17;;;;;;;;;;;;;;;-4.31;75.10;98919.13;5007667;28;19933;-70
2023/12/01 06:25:46;;;;;;;;;;;;;;;-4.30;74.60;98924.25;5004631;28;20031;-70
2023/12/01 06:28:12;;;;;;;;;;;;;;;-4.30;75.12;98908.22;5022443;28;19957;-70
2023/12/01 06:30:38;;;;;;;;;;;;;;;-4.29;75.23;98919.75;5025021;28;20356;-72
2023/12/01 06:33:05;;;;;;;;;;;;;;;-4.31;75.22;98927.13;5025066;28;20533;-70
2023/12/01 06:35:31;;;;;;;;;;;;;;;-4.32;75.23;98906.81;5024748;28;19929;-70
2023/12/01 06:37:57;;;;;;;;;;;;;;;-4.33;75.25;98900.63;5007975;28;19943;-72
2023/12/01 06:40:25;;;;;;;;;;;;;;;-4.30;75.50;98897.56;5024894;28;19929;-72
2023/12/01 06:42:52;;;;;;;;;;;;;;;-4.24;75.67;98890.59;5022734;28;20032;-72
2023/12/01 06:45:18;;;;;;;;;;;;;;;-4.22;75.80;98896.56;5022071;28;19936;-71
2023/12/01 06:47:46;;;;;;;;;;;;;;;-4.21;75.52;98892.88;5022393;28;19929;-72
2023/12/01 06:50:14;;;;;;;;;;;;;;;-4.24;75.59;98897.81;5022342;28;19929;-71
2023/12/01 06:52:40;;;;;;;;;;;;;;;-4.23;75.75;98899.44;5021056;28;19929;-72
2023/12/01 06:55:07;;;;;;;;;;;;;;;-4.21;75.86;98902.72;5037783;28;19948;-72
2023/12/01 06:57:35;;;;;;;;;;;;;;;-4.20;75.90;98886.53;5020819;28;19971;-72
2023/12/01 07:00:02;;;;;;;;;;;;;;;-4.19;75.54;98890.00;5022337;28;20462;-72
2023/12/01 07:02:33;;;;;;;;;;;;;;;-4.19;75.55;98892.66;5036686;28;19953;-72
2023/12/01 07:04:59;;;;;;;;;;;;;;;-4.14;75.62;98892.88;5019115;28;20590;-72
2023/12/01 07:07:30;;;;;;;;;;;;;;;-4.13;75.51;98889.22;5019904;28;20045;-72
2023/12/01 07:09:57;;;;;;;;;;;;;;;-4.11;75.40;98887.16;5019408;28;19929;-71
2023/12/01 07:12:23;;;;;;;;;;;;;;;-4.08;75.50;98888.59;5025182;28;19939;-72
2023/12/01 07:14:50;;;;;;;;;;;;;;;-4.07;75.29;98892.91;5022742;28;19929;-72
2023/12/01 07:17:16;;;;;;;;;;;;;;;-4.10;75.30;98890.63;5028537;28;19983;-72
2023/12/01 07:19:42;;;;;;;;;;;;;;;-4.08;75.33;98891.25;5026349;28;19975;-72
2023/12/01 07:22:10;;;;;;;;;;;;;;;-4.05;75.52;98886.34;5023721;28;19933;-72
2023/12/01 07:24:36;;;;;;;;;;;;;;;-4.02;74.79;98896.63;5023767;28;19929;-71
2023/12/01 07:27:02;;;;;;;;;;;;;;;-4.03;75.03;98905.66;4990174;28;19929;-72
2023/12/01 07:29:29;;;;;;;;;;;;;;;-4.02;74.80;98893.16;5016968;28;20659;-72
2023/12/01 07:31:57;;;;;;;;;;;;;;;-4.03;74.79;98888.81;5028482;28;19929;-73
2023/12/01 07:34:23;;;;;;;;;;;;;;;-4.08;74.34;98891.25;5026835;28;19929;-71
2023/12/01 07:36:49;;;;;;;;;;;;;;;-4.07;74.57;98883.06;5009279;28;20465;-72
2023/12/01 07:39:15;;;;;;;;;;;;;;;-4.02;74.86;98871.78;5027349;28;19939;-72
2023/12/01 07:41:41;;;;;;;;;;;;;;;-3.96;74.71;98876.28;5006109;28;19933;-70
2023/12/01 07:44:08;;;;;;;;;;;;;;;-3.89;74.44;98881.66;5014649;28;19929;-70
2023/12/01 07:46:34;;;;;;;;;;;;;;;-3.93;74.16;98881.22;5020443;28;20431;-70
2023/12/01 07:49:01;;;;;;;;;;;;;;;-3.95;74.43;98874.47;5022674;28;19929;-70
2023/12/01 07:51:27;;;;;;;;;;;;;;;-3.95;74.25;98869.94;5024659;28;19929;-72
2023/12/01 07:53:53;;;;;;;;;;;;;;;-3.99;74.51;98866.03;5004795;28;19979;-71
2023/12/01 07:56:21;;;;;;;;;;;;;;;-3.94;74.74;98874.25;5023405;28;20400;-72
2023/12/01 07:58:47;;;;;;;;;;;;;;;-3.94;74.71;98866.22;5024751;28;20380;-72
2023/12/01 08:01:14;;;;;;;;;;;;;;;-3.88;74.49;98865.44;5027489;28;19929;-70
2023/12/01 08:03:40;;;;;;;;;;;;;;;-3.85;74.48;98862.34;5027759;28;20039;-71
2023/12/01 08:06:08;;;;;;;;;;;;;;;-3.86;74.47;98862.53;5027051;28;19965;-71
2023/12/01 08:08:35;;;;;;;;;;;;;;;-3.90;74.61;98859.47;5024988;28;19951;-70
2023/12/01 08:11:04;;;;;;;;;;;;;;;-3.87;74.85;98859.06;5020965;28;19935;-70
2023/12/01 08:13:29;;;;;;;;;;;;;;;-3.83;74.96;98845.28;5023622;28;19943;-71
2023/12/01 08:15:55;;;;;;;;;;;;;;;-3.81;74.98;98848.56;5026760;28;19929;-71
2023/12/01 08:18:21;;;;;;;;;;;;;;;-3.86;75.27;98846.50;5004759;28;19929;-70
2023/12/01 08:20:48;;;;;;;;;;;;;;;-3.88;75.52;98845.91;5023082;28;19987;-71
2023/12/01 08:23:17;;;;;;;;;;;;;;;-3.88;75.70;98849.41;5021865;28;19929;-70
2023/12/01 08:25:44;;;;;;;;;;;;;;;-3.87;76.15;98844.88;5007626;28;20035;-71
2023/12/01 08:28:10;;;;;;;;;;;;;;;-3.89;76.31;98852.28;5019362;28;20019;-71
2023/12/01 08:30:36;;;;;;;;;;;;;;;-3.86;76.52;98846.50;5042482;28;20475;-71
2023/12/01 08:33:02;;;;;;;;;;;;;;;-3.89;76.44;98846.94;5005684;28;20033;-71
2023/12/01 08:35:28;;;;;;;;;;;;;;;-3.85;76.60;98840.97;5039875;28;20068;-70
2023/12/01 08:37:55;;;;;;;;;;;;;;;-3.84;76.58;98823.09;5039308;28;19961;-70
2023/12/01 08:40:22;;;;;;;;;;;;;;;-3.78;76.62;98827.63;5008216;28;20564;-70
2023/12/01 08:42:52;;;;;;;;;;;;;;;-3.78;76.83;98830.31;5024546;28;20447;-70
2023/12/01 08:45:18;;;;;;;;;;;;;;;-3.75;76.83;98813.84;5017547;28;19936;-70
2023/12/01 08:47:44;;;;;;;;;;;;;;;-3.68;76.95;98821.03;5008807;28;20172;-70
2023/12/01 08:50:10;;;;;;;;;;;;;;;-3.62;76.83;98821.03;5027284;28;19929;-70
2023/12/01 08:52:38;;;;;;;;;;;;;;;-3.59;76.58;98819.81;4992933;28;19929;-70
2023/12/01 08:55:05;;;;;;;;;;;;;;;-3.62;76.67;98822.91;5008006;28;19929;-70
2023/12/01 08:57:32;;;;;;;;;;;;;;;-3.63;76.87;98821.25;5027363;28;19929;-70
2023/12/01 08:59:59;;;;;;;;;;;;;;;-3.61;77.13;98819.19;5007307;28;19929;-70
2023/12/01 09:02:26;;;;;;;;;;;;;;;-3.53;76.99;98818.97;5023838;28;19929;-71
2023/12/01 09:04:52;;;;;;;;;;;;;;;-3.53;77.04;98813.63;5023768;28;19939;-71
2023/12/01 09:07:18;;;;;;;;;;;;;;;-3.43;76.93;98810.56;5024469;28;20572;-70
2023/12/01 09:09:44;;;;;;;;;;;;;;;-3.36;76.87;98806.00;5021646;28;20363;-70
2023/12/01 09:12:09;;;;;;;;;;;;;;;-3.31;76.49;98806.19;5023070;28;19929;-70
2023/12/01 09:14:37;;;;;;;;;;;;;;;-3.32;76.77;98799.22;5023766;28;20395;-70
2023/12/01 09:17:03;;;;;;;;;;;;;;;-3.22;76.64;98795.28;5018007;28;19929;-70
2023/12/01 09:19:29;;;;;;;;;;;;;;;-3.13;76.35;98792.19;5021519;28;19987;-70
2023/12/01 09:21:55;;;;;;;;;;;;;;;-3.05;76.24;98793.81;5023105;28;19933;-70
2023/12/01 09:24:21;;;;;;;;;;;;;;;-3.06;76.13;98800.19;5004136;28;19929;-70
2023/12/01 09:26:47;;;;;;;;;;;;;;;-3.05;75.84;98807.19;5023171;28;20783;-70
2023/12/01 09:29:13;;;;;;;;;;;;;;;-3.15;76.04;98799.59;5021259;28;20020;-71
2023/12/01 09:31:44;;;;;;;;;;;;;;;-3.20;76.43;98798.56;5022646;28;19933;-71
2023/12/01 09:34:10;;;;;;;;;;;;;;;-3.26;76.52;98791.41;5022587;28;19955;-70
2023/12/01 09:36:36;;;;;;;;;;;;;;;-3.26;76.90;98791.41;5021947;28;20171;-70
2023/12/01 09:39:02;;;;;;;;;;;;;;;-3.25;76.75;98787.69;5023720;28;19929;-70
2023/12/01 09:41:29;;;;;;;;;;;;;;;-3.32;76.88;98775.16;5023386;28;19929;-71
2023/12/01 09:43:55;;;;;;;;;;;;;;;-3.27;76.96;98785.22;5018258;28;19936;-71
2023/12/01 09:46:23;;;;;;;;;;;;;;;-3.31;77.03;98776.78;5013878;28;19936;-70
2023/12/01 09:48:50;;;;;;;;;;;;;;;-3.37;77.23;98774.13;5023162;28;19968;-70
2023/12/01 09:51:16;;;;;;;;;;;;;;;-3.40;77.78;98762.03;5019299;28;19936;-70
2023/12/01 09:53:42;;;;;;;;;;;;;;;-3.33;77.88;98746.78;5020796;28;19932;-70
2023/12/01 09:56:10;;;;;;;;;;;;;;;-3.26;77.60;98762.78;5019837;28;19929;-71
2023/12/01 09:58:37;;;;;;;;;;;;;;;-3.19;77.35;98754.75;5022844;28;19974;-70
2023/12/01 10:01:04;;;;;;;;;;;;;;;-3.11;77.54;98748.34;5021774;28;20028;-71
2023/12/01 10:03:30;;;;;;;;;;;;;;;-3.16;77.12;98732.94;5018516;28;20020;-71
2023/12/01 10:06:01;;;;;;;;;;;;;;;-3.13;77.45;98730.66;5020225;28;20053;-71
2023/12/01 10:08:27;;;;;;;;;;;;;;;-3.16;77.17;98730.25;5020943;28;19929;-71
2023/12/01 10:10:53;;;;;;;;;;;;;;;-3.17;77.64;98724.09;5021468;28;19929;-71
2023/12/01 10:13:20;;;;;;;;;;;;;;;-3.16;77.69;98723.06;5037410;28;20360;-72
2023/12/01 10:15:47;;;;;;;;;;;;;;;-3.15;77.09;98718.53;5022014;28;19939;-71
2023/12/01 10:18:16;;;;;;;;;;;;;;;-3.25;77.33;98727.00;5022239;28;19936;-71
2023/12/01 10:21:07;;;;;;;;;;;;;;;-3.31;77.56;98717.97;5023060;28;22410;-71
2023/12/01 10:23:36;;;;;;;;;;;;;;;-3.47;78.17;98681.84;5019951;28;19940;-71
2023/12/01 10:26:04;;;;;;;;;;;;;;;-3.31;78.17;98706.47;5024249;28;19929;-70
2023/12/01 10:28:43;;;;;;;;;;;;;;;-3.30;78.01;98700.88;5022504;28;19929;-70
2023/12/01 10:31:12;;;;;;;;;;;;;;;-3.32;77.99;98704.81;5023090;28;19928;-70
2023/12/01 10:33:39;;;;;;;;;;;;;;;-3.33;78.06;98697.84;5001639;28;20355;-70
2023/12/01 10:36:05;;;;;;;;;;;;;;;-3.31;77.98;98701.94;5016328;28;20393;-70
2023/12/01 10:38:35;;;;;;;;;;;;;;;-3.30;77.76;98698.22;5024692;28;19929;-70
2023/12/01 10:41:03;;;;;;;;;;;;;;;-3.31;78.03;98690.44;5011220;28;19967;-71
2023/12/01 10:43:29;;;;;;;;;;;;;;;-3.29;78.09;98685.69;5024462;28;19969;-71
2023/12/01 10:45:59;;;;;;;;;;;;;;;-3.25;78.21;98680.75;5023922;28;20424;-71
2023/12/01 10:48:27;;;;;;;;;;;;;;;-3.22;78.29;98685.66;5039314;28;19975;-72
2023/12/01 10:50:54;;;;;;;;;;;;;;;-3.28;78.64;98676.63;5022486;28;19929;-70
2023/12/01 10:53:22;;;;;;;;;;;;;;;-3.26;78.89;98687.94;5001587;28;19929;-71
2023/12/01 10:55:48;;;;;;;;;;;;;;;-3.30;79.13;98673.34;5024064;28;19929;-71
2023/12/01 10:58:20;;;;;;;;;;;;;;;-3.29;79.29;98675.00;4999052;28;19975;-71
2023/12/01 11:00:47;;;;;;;;;;;;;;;-3.24;79.59;98669.00;5000158;28;20032;-70
2023/12/01 11:03:13;;;;;;;;;;;;;;;-3.22;79.55;98678.44;5018687;28;20035;-70
2023/12/01 11:05:41;;;;;;;;;;;;;;;-3.24;79.59;98663.66;5024942;28;19929;-71
2023/12/01 11:08:17;;;;;;;;;;;;;;;-3.28;79.50;98663.25;5022921;28;20028;-70
2023/12/01 11:10:48;;;;;;;;;;;;;;;-3.35;79.93;98667.81;5023374;28;19936;-70
2023/12/01 11:13:22;;;;;;;;;;;;;;;-3.39;80.15;98656.72;5019566;28;19929;-70
2023/12/01 11:15:49;;;;;;;;;;;;;;;-3.30;80.34;98657.31;5018519;28;19951;-70
2023/12/01 11:18:15;;;;;;;;;;;;;;;-3.25;80.16;98659.34;5006752;28;19941;-70
2023/12/01 11:20:43;;;;;;;;;;;;;;;-3.32;80.16;98651.34;5003321;28;19983;-70
2023/12/01 11:23:25;;;;;;;;;;;;;;;-3.21;80.48;98655.22;4972433;28;20388;-70
2023/12/01 11:25:53;;;;;;;;;;;;;;;-3.18;80.18;98650.25;5023652;28;19935;-71
2023/12/01 11:28:25;;;;;;;;;;;;;;;-3.14;80.06;98643.44;5018747;28;19929;-71
2023/12/01 11:31:14;;;;;;;;;;;;;;;-3.09;80.26;98642.81;5019884;28;19940;-71
2023/12/01 11:33:42;;;;;;;;;;;;;;;-3.09;80.25;98637.47;5009915;28;19960;-71
2023/12/01 11:36:24;;;;;;;;;;;;;;;-3.08;80.27;98630.25;5001807;28;20090;-72
2023/12/01 11:41:46;;;;;;;;;;;;;;;-3.22;80.71;98627.63;5022234;28;19925;-70
2023/12/01 11:44:16;;;;;;;;;;;;;;;-3.27;80.81;98616.78;5009635;28;19929;-71
2023/12/01 11:46:42;;;;;;;;;;;;;;;-3.37;80.93;98611.06;5038603;28;19929;-71
2023/12/01 11:49:14;;;;;;;;;;;;;;;-3.37;81.07;98616.41;5021220;28;20016;-71
2023/12/01 11:51:40;;;;;;;;;;;;;;;-3.34;81.27;98616.78;5022817;28;19936;-71
2023/12/01 11:54:06;;;;;;;;;;;;;;;-3.34;81.00;98621.34;5021793;28;19936;-70
2023/12/01 11:56:32;;;;;;;;;;;;;;;-3.37;81.33;98608.38;5022536;28;19929;-70
2023/12/01 11:58:58;;;;;;;;;;;;;;;-3.36;81.46;98610.84;5019091;28;19936;-71
2023/12/01 12:01:26;;;;;;;;;;;;;;;-3.34;81.68;98599.94;5004126;28;19928;-70
2023/12/01 12:03:53;;;;;;;;;;;;;;;-3.37;81.89;98603.88;5021380;28;19929;-70
2023/12/01 12:06:19;;;;;;;;;;;;;;;-3.42;81.89;98606.38;5023962;28;19929;-70
2023/12/01 12:08:46;;;;;;;;;;;;;;;-3.49;82.21;98605.56;5022958;28;19940;-70
2023/12/01 12:11:12;;;;;;;;;;;;;;;-3.53;82.54;98597.13;5022441;28;20027;-70
2023/12/01 12:13:38;;;;;;;;;;;;;;;-3.51;82.53;98605.78;5025567;28;20019;-71
2023/12/01 12:16:05;;;;;;;;;;;;;;;-3.54;82.60;98603.50;5024832;28;19929;-70
2023/12/01 12:18:33;;;;;;;;;;;;;;;-3.56;82.80;98598.41;5022600;28;19944;-70
2023/12/01 12:21:00;;;;;;;;;;;;;;;-3.53;82.95;98596.34;5024101;28;19929;-71
2023/12/01 12:23:26;;;;;;;;;;;;;;;-3.56;82.75;98593.06;5022305;28;19930;-70
2023/12/01 12:25:52;;;;;;;;;;;;;;;-3.65;82.93;98590.84;5012926;28;19929;-71
2023/12/01 12:28:19;;;;;;;;;;;;;;;-3.72;82.52;98594.34;5023243;28;19936;-70
2023/12/01 12:30:47;;;;;;;;;;;;;;;-3.71;82.81;98587.97;5022530;28;19971;-70
2023/12/01 12:33:13;;;;;;;;;;;;;;;-3.72;82.61;98582.84;5022646;28;19929;-70
2023/12/01 12:35:40;;;;;;;;;;;;;;;-3.83;83.00;98578.94;5003674;28;20368;-71
2023/12/01 12:38:07;;;;;;;;;;;;;;;-3.85;83.37;98581.03;5017722;28;19929;-70
2023/12/01 12:40:33;;;;;;;;;;;;;;;-3.85;83.77;98567.66;5023269;28;20506;-70
2023/12/01 12:43:02;;;;;;;;;;;;;;;-3.83;84.19;98570.13;5024289;28;20391;-70
2023/12/01 12:45:29;;;;;;;;;;;;;;;-3.86;84.49;98558.84;4990073;28;19936;-70
2023/12/01 12:48:03;;;;;;;;;;;;;;;-3.78;84.73;98559.63;5004773;28;20226;-70
2023/12/01 12:50:29;;;;;;;;;;;;;;;-3.85;84.98;98556.97;5008358;28;19933;-70